| time (UTC) | temp F | wind direction | speed MPH | gust MPH | rain 1hr in | rain 24hr in | rain mn in | humidity % | barometer mb |
| 20260510030010 | 52 | 5 | 0.0 | 2.0 | 0.00 | 0.00 | 0.00 | 87 | 1012.6 |
| 20260510024504 | 52 | 53 | 0.0 | 3.0 | 0.00 | 0.00 | 0.00 | 87 | 1012.7 |
| 20260510023003 | 52 | 69 | 0.0 | 3.0 | 0.00 | 0.00 | 0.00 | 87 | 1012.9 |
| 20260510021502 | 52 | 61 | 0.0 | 2.0 | 0.00 | 0.00 | 0.00 | 86 | 1012.9 |
| 20260510020100 | 52 | 70 | 0.0 | 1.0 | 0.00 | 0.00 | 0.00 | 86 | 1013.0 |
| 20260510014618 | 52 | 70 | 0.0 | 2.0 | 0.00 | 0.00 | 0.00 | 86 | 1013.1 |
| 20260510013103 | 52 | 38 | 0.0 | 2.0 | 0.00 | 0.00 | 0.00 | 86 | 1013.3 |
| 20260510011556 | 52 | 71 | 0.0 | 1.0 | 0.00 | 0.00 | 0.00 | 85 | 1013.3 |
| 20260510010054 | 53 | 71 | 0.0 | 1.0 | 0.00 | 0.00 | 0.00 | 85 | 1013.6 |
| 20260510004552 | 53 | 53 | 0.0 | 1.0 | 0.00 | 0.00 | 0.00 | 85 | 1013.7 |
| 20260510003052 | 53 | 53 | 0.0 | 2.0 | 0.00 | 0.00 | 0.00 | 85 | 1013.9 |
| 20260510001552 | 53 | 71 | 0.0 | 2.0 | 0.00 | 0.00 | 0.00 | 84 | 1014.0 |
| 20260510000051 | 54 | 71 | 0.0 | 1.0 | 0.00 | 0.00 | 0.00 | 84 | 1014.2 |
| 20260509234547 | 54 | 71 | 0.0 | 2.0 | 0.00 | 0.00 | 0.00 | 83 | 1014.4 |
| 20260509233050 | 54 | 71 | 0.0 | 2.0 | 0.00 | 0.00 | 0.00 | 83 | 1014.4 |
| 20260509231542 | 55 | 71 | 0.0 | 2.0 | 0.00 | 0.00 | 0.00 | 82 | 1014.5 |
| 20260509230040 | 55 | 102 | 0.0 | 2.0 | 0.00 | 0.00 | 0.00 | 81 | 1014.5 |
| 20260509224549 | 55 | 84 | 0.0 | 1.0 | 0.00 | 0.00 | 0.00 | 82 | 1014.4 |
| 20260509223038 | 56 | 67 | 0.0 | 1.0 | 0.00 | 0.00 | 0.00 | 82 | 1014.4 |
| 20260509221539 | 56 | 67 | 0.0 | 1.0 | 0.00 | 0.00 | 0.00 | 82 | 1014.4 |
| 20260509220034 | 56 | 67 | 0.0 | 1.0 | 0.00 | 0.00 | 0.00 | 82 | 1014.4 |
| 20260509214533 | 56 | 67 | 0.0 | 1.0 | 0.00 | 0.00 | 0.00 | 82 | 1014.4 |
| 20260509213033 | 57 | 63 | 0.0 | 1.0 | 0.00 | 0.00 | 0.00 | 82 | 1014.4 |
| 20260509211532 | 57 | 59 | 0.0 | 1.0 | 0.00 | 0.00 | 0.00 | 81 | 1014.4 |
| 20260509210033 | 57 | 59 | 0.0 | 0.0 | 0.00 | 0.00 | 0.00 | 82 | 1014.4 |
| 20260509204531 | 58 | 59 | 0.0 | 0.0 | 0.00 | 0.00 | 0.00 | 82 | 1014.4 |
| 20260509203031 | 58 | 59 | 0.0 | 0.0 | 0.00 | 0.00 | 0.00 | 81 | 1014.4 |
| 20260509201534 | 59 | 59 | 0.0 | 0.0 | 0.00 | 0.00 | 0.00 | 80 | 1014.3 |
| 20260509200029 | 60 | 59 | 0.0 | 0.0 | 0.00 | 0.00 | 0.00 | 79 | 1014.1 |
| 20260509194529 | 60 | 59 | 0.0 | 0.0 | 0.00 | 0.00 | 0.00 | 78 | 1014.1 |
| 20260509193028 | 61 | 59 | 0.0 | 1.0 | 0.00 | 0.00 | 0.00 | 77 | 1013.6 |
| 20260509191528 | 62 | 59 | 0.0 | 1.0 | 0.00 | 0.00 | 0.00 | 76 | 1013.5 |
| 20260509190027 | 63 | 59 | 0.0 | 1.0 | 0.00 | 0.00 | 0.00 | 74 | 1013.5 |
| 20260509184527 | 64 | 59 | 0.0 | 0.0 | 0.00 | 0.00 | 0.00 | 74 | 1013.5 |
| 20260509183027 | 65 | 59 | 0.0 | 1.0 | 0.00 | 0.00 | 0.00 | 71 | 1013.4 |
| 20260509181526 | 66 | 59 | 0.0 | 2.0 | 0.00 | 0.00 | 0.00 | 69 | 1013.3 |
| 20260509180026 | 67 | 94 | 0.0 | 3.0 | 0.00 | 0.00 | 0.00 | 68 | 1013.4 |
| 20260509174526 | 68 | 70 | 0.0 | 4.0 | 0.00 | 0.00 | 0.00 | 67 | 1013.4 |
| 20260509173025 | 69 | 77 | 1.0 | 6.0 | 0.00 | 0.00 | 0.00 | 64 | 1013.2 |
| 20260509171534 | 70 | 84 | 0.0 | 3.0 | 0.00 | 0.00 | 0.00 | 63 | 1013.4 |
| 20260509170029 | 70 | 82 | 1.0 | 3.0 | 0.00 | 0.00 | 0.00 | 63 | 1013.3 |
| 20260509164522 | 70 | 75 | 1.0 | 7.0 | 0.00 | 0.00 | 0.00 | 66 | 1013.7 |
| 20260509163025 | 69 | 5 | 1.0 | 3.0 | 0.00 | 0.00 | 0.00 | 66 | 1013.7 |
| 20260509161523 | 69 | 79 | 0.0 | 4.0 | 0.00 | 0.00 | 0.00 | 65 | 1013.5 |
| 20260509160019 | 69 | 74 | 0.0 | 2.0 | 0.00 | 0.00 | 0.00 | 66 | 1013.9 |
| 20260509154519 | 70 | 85 | 0.0 | 3.0 | 0.00 | 0.00 | 0.00 | 63 | 1013.9 |
| 20260509153016 | 72 | 45 | 1.0 | 3.0 | 0.00 | 0.00 | 0.00 | 59 | 1014.0 |
| 20260509151516 | 73 | 37 | 1.0 | 4.0 | 0.00 | 0.00 | 0.00 | 63 | 1014.1 |
| 20260509150023 | 72 | 88 | 1.0 | 5.0 | 0.00 | 0.00 | 0.00 | 67 | 1014.3 |
| 20260509144523 | 73 | 96 | 1.0 | 6.0 | 0.00 | 0.00 | 0.00 | 60 | 1014.2 |
| 20260509143013 | 73 | 78 | 1.0 | 6.0 | 0.00 | 0.00 | 0.00 | 60 | 1014.2 |
| 20260509141519 | 72 | 91 | 2.0 | 5.0 | 0.00 | 0.00 | 0.00 | 60 | 1014.2 |
| 20260509140011 | 72 | 36 | 1.0 | 4.0 | 0.00 | 0.00 | 0.00 | 66 | 1014.2 |
| 20260509134512 | 72 | 78 | 1.0 | 6.0 | 0.00 | 0.00 | 0.00 | 67 | 1014.2 |
| 20260509133010 | 71 | 104 | 1.0 | 6.0 | 0.00 | 0.00 | 0.00 | 64 | 1014.3 |
| 20260509131509 | 70 | 74 | 2.0 | 9.0 | 0.00 | 0.00 | 0.00 | 62 | 1014.6 |
| 20260509130008 | 73 | 91 | 1.0 | 9.0 | 0.00 | 0.00 | 0.00 | 55 | 1014.8 |
| 20260509124508 | 72 | 38 | 1.0 | 8.0 | 0.00 | 0.00 | 0.00 | 63 | 1014.7 |
| 20260509123004 | 72 | 75 | 4.0 | 9.0 | 0.00 | 0.00 | 0.00 | 60 | 1014.8 |
| 20260509121501 | 72 | 330 | 2.0 | 10.0 | 0.00 | 0.00 | 0.00 | 62 | 1015.0 |
| 20260509120058 | 71 | 30 | 1.0 | 7.0 | 0.00 | 0.00 | 0.00 | 65 | 1015.0 |
| 20260509114558 | 71 | 126 | 1.0 | 7.0 | 0.00 | 0.00 | 0.00 | 63 | 1015.2 |
| 20260509113058 | 71 | 76 | 2.0 | 5.0 | 0.00 | 0.00 | 0.00 | 61 | 1015.3 |
| 20260509111553 | 70 | 103 | 1.0 | 6.0 | 0.00 | 0.00 | 0.00 | 68 | 1015.4 |
| 20260509110051 | 70 | 98 | 1.0 | 8.0 | 0.00 | 0.00 | 0.00 | 72 | 1015.6 |
| 20260509104547 | 69 | 82 | 2.0 | 6.0 | 0.00 | 0.00 | 0.00 | 75 | 1015.8 |
| 20260509103047 | 68 | 107 | 1.0 | 6.0 | 0.00 | 0.00 | 0.00 | 72 | 1015.8 |
| 20260509101550 | 67 | 84 | 1.0 | 7.0 | 0.00 | 0.00 | 0.00 | 73 | 1015.9 |
| 20260509100040 | 66 | 127 | 1.0 | 4.0 | 0.00 | 0.00 | 0.00 | 71 | 1016.1 |
| 20260509094539 | 66 | 33 | 1.0 | 6.0 | 0.00 | 0.00 | 0.00 | 71 | 1016.0 |
| 20260509093037 | 66 | 92 | 0.0 | 4.0 | 0.00 | 0.00 | 0.00 | 74 | 1016.2 |
| 20260509091534 | 65 | 63 | 0.0 | 2.0 | 0.00 | 0.00 | 0.00 | 73 | 1016.3 |
| 20260509090032 | 65 | 35 | 1.0 | 7.0 | 0.00 | 0.00 | 0.00 | 73 | 1016.3 |
| 20260509084527 | 64 | 69 | 0.0 | 4.0 | 0.00 | 0.00 | 0.00 | 76 | 1016.3 |
| 20260509083024 | 62 | 66 | 0.0 | 7.0 | 0.00 | 0.00 | 0.00 | 77 | 1016.3 |
| 20260509081524 | 62 | 113 | 1.0 | 6.0 | 0.00 | 0.00 | 0.00 | 79 | 1016.4 |
| 20260509080021 | 60 | 75 | 1.0 | 5.0 | 0.00 | 0.00 | 0.00 | 81 | 1016.5 |
| 20260509074515 | 59 | 333 | 1.0 | 4.0 | 0.00 | 0.00 | 0.00 | 82 | 1016.5 |
| 20260509073011 | 57 | 78 | 0.0 | 4.0 | 0.00 | 0.00 | 0.00 | 84 | 1016.5 |
| 20260509071506 | 54 | 35 | 0.0 | 2.0 | 0.00 | 0.00 | 0.00 | 90 | 1016.6 |
| 20260509070003 | 52 | 20 | 0.0 | 0.0 | 0.00 | 0.00 | 0.00 | 91 | 1016.5 |
| 20260509064617 | 52 | 20 | 0.0 | 0.0 | 0.00 | 0.00 | 0.00 | 90 | 1016.6 |
| 20260509063056 | 51 | 20 | 0.0 | 0.0 | 0.00 | 0.00 | 0.00 | 90 | 1016.7 |
| 20260509061622 | 51 | 20 | 0.0 | 0.0 | 0.00 | 0.00 | 0.00 | 89 | 1016.6 |
| 20260509060052 | 51 | 49 | 0.0 | 0.0 | 0.00 | 0.00 | 0.00 | 91 | 1016.5 |
| 20260509054549 | 49 | 350 | 0.0 | 0.0 | 0.00 | 0.00 | 0.00 | 94 | 1016.5 |
| 20260509053048 | 48 | 327 | 0.0 | 0.0 | 0.00 | 0.00 | 0.00 | 95 | 1016.5 |
| 20260509051547 | 47 | 327 | 0.0 | 0.0 | 0.00 | 0.00 | 0.00 | 95 | 1016.3 |
| 20260509050043 | 46 | 327 | 0.0 | 1.0 | 0.00 | 0.00 | 0.00 | 95 | 1016.4 |
| 20260509044542 | 46 | 327 | 0.0 | 2.0 | 0.00 | 0.00 | 0.00 | 95 | 1016.3 |
| 20260509043046 | 46 | 327 | 0.0 | 1.0 | 0.00 | 0.00 | 0.00 | 95 | 1016.5 |
| 20260509041538 | 46 | 327 | 0.0 | 0.0 | 0.00 | 0.00 | 0.00 | 95 | 1016.4 |
| 20260509040042 | 47 | 327 | 0.0 | 0.0 | 0.00 | 0.00 | 0.00 | 94 | 1016.4 |
| 20260509034547 | 47 | 327 | 0.0 | 0.0 | 0.00 | 0.00 | 0.00 | 94 | 1016.5 |
| 20260509033037 | 47 | 327 | 0.0 | 0.0 | 0.00 | 0.00 | 0.00 | 94 | 1016.6 |
| 20260509031533 | 47 | 75 | 0.0 | 0.0 | 0.00 | 0.00 | 0.00 | 93 | 1016.6 |